sensor_id;sensor_type;location;lat;lon;timestamp;temperature;humidity
1413;DHT22;701;52.526;13.408;2023-02-28T00:00:16;3.20;21.00
1413;DHT22;701;52.526;13.408;2023-02-28T00:02:43;3.10;21.00
1413;DHT22;701;52.526;13.408;2023-02-28T00:05:11;3.10;21.20
1413;DHT22;701;52.526;13.408;2023-02-28T00:07:37;3.10;21.20
1413;DHT22;701;52.526;13.408;2023-02-28T00:10:07;3.10;21.20
1413;DHT22;701;52.526;13.408;2023-02-28T00:12:34;3.10;21.30
1413;DHT22;701;52.526;13.408;2023-02-28T00:15:01;3.20;21.30
1413;DHT22;701;52.526;13.408;2023-02-28T00:17:26;3.20;21.20
1413;DHT22;701;52.526;13.408;2023-02-28T00:19:52;3.20;21.20
1413;DHT22;701;52.526;13.408;2023-02-28T00:22:19;3.20;21.10
1413;DHT22;701;52.526;13.408;2023-02-28T00:24:46;3.30;21.00
1413;DHT22;701;52.526;13.408;2023-02-28T00:27:13;3.30;20.90
1413;DHT22;701;52.526;13.408;2023-02-28T00:29:40;3.30;20.80
1413;DHT22;701;52.526;13.408;2023-02-28T00:32:06;3.30;20.60
1413;DHT22;701;52.526;13.408;2023-02-28T00:34:32;3.40;20.70
1413;DHT22;701;52.526;13.408;2023-02-28T00:37:07;3.40;20.70
1413;DHT22;701;52.526;13.408;2023-02-28T00:39:35;3.50;20.70
1413;DHT22;701;52.526;13.408;2023-02-28T00:42:02;3.50;20.80
1413;DHT22;701;52.526;13.408;2023-02-28T00:44:29;3.50;20.80
1413;DHT22;701;52.526;13.408;2023-02-28T00:46:55;3.50;20.70
1413;DHT22;701;52.526;13.408;2023-02-28T00:49:24;3.50;20.40
1413;DHT22;701;52.526;13.408;2023-02-28T00:51:50;3.60;20.40
1413;DHT22;701;52.526;13.408;2023-02-28T00:54:16;3.50;20.20
1413;DHT22;701;52.526;13.408;2023-02-28T00:56:42;3.50;20.50
1413;DHT22;701;52.526;13.408;2023-02-28T00:59:08;3.50;20.00
1413;DHT22;701;52.526;13.408;2023-02-28T01:01:34;3.50;20.00
1413;DHT22;701;52.526;13.408;2023-02-28T01:04:00;3.50;20.10
1413;DHT22;701;52.526;13.408;2023-02-28T01:06:26;3.50;20.00
1413;DHT22;701;52.526;13.408;2023-02-28T01:08:52;3.40;20.00
1413;DHT22;701;52.526;13.408;2023-02-28T01:11:18;3.40;20.00
1413;DHT22;701;52.526;13.408;2023-02-28T01:13:45;3.40;20.10
1413;DHT22;701;52.526;13.408;2023-02-28T01:16:11;3.30;20.30
1413;DHT22;701;52.526;13.408;2023-02-28T01:18:38;3.30;20.70
1413;DHT22;701;52.526;13.408;2023-02-28T01:21:09;3.20;20.50
1413;DHT22;701;52.526;13.408;2023-02-28T01:23:35;3.20;20.50
1413;DHT22;701;52.526;13.408;2023-02-28T01:26:07;3.20;20.60
1413;DHT22;701;52.526;13.408;2023-02-28T01:28:33;3.20;20.60
1413;DHT22;701;52.526;13.408;2023-02-28T01:30:59;3.10;20.50
1413;DHT22;701;52.526;13.408;2023-02-28T01:33:25;3.10;20.50
1413;DHT22;701;52.526;13.408;2023-02-28T01:36:04;3.10;20.50
1413;DHT22;701;52.526;13.408;2023-02-28T01:38:30;3.10;20.70
1413;DHT22;701;52.526;13.408;2023-02-28T01:40:56;3.10;20.90
1413;DHT22;701;52.526;13.408;2023-02-28T01:43:53;3.10;21.40
1413;DHT22;701;52.526;13.408;2023-02-28T01:46:19;3.10;21.00
1413;DHT22;701;52.526;13.408;2023-02-28T01:48:51;3.10;20.90
1413;DHT22;701;52.526;13.408;2023-02-28T01:51:22;3.00;20.80
1413;DHT22;701;52.526;13.408;2023-02-28T01:53:54;3.00;20.90
1413;DHT22;701;52.526;13.408;2023-02-28T01:56:25;2.90;20.90
1413;DHT22;701;52.526;13.408;2023-02-28T01:58:53;2.90;21.10
1413;DHT22;701;52.526;13.408;2023-02-28T02:01:20;2.80;21.20
1413;DHT22;701;52.526;13.408;2023-02-28T02:04:05;2.80;21.60
1413;DHT22;701;52.526;13.408;2023-02-28T02:06:38;2.70;22.00
1413;DHT22;701;52.526;13.408;2023-02-28T02:09:07;2.60;21.80
1413;DHT22;701;52.526;13.408;2023-02-28T02:11:34;2.50;22.00
1413;DHT22;701;52.526;13.408;2023-02-28T02:14:30;2.50;22.30
1413;DHT22;701;52.526;13.408;2023-02-28T02:19:36;2.30;23.20
1413;DHT22;701;52.526;13.408;2023-02-28T02:40:03;1.80;24.10
1413;DHT22;701;52.526;13.408;2023-02-28T02:48:11;1.70;24.30
1413;DHT22;701;52.526;13.408;2023-02-28T02:51:03;1.70;24.50
1413;DHT22;701;52.526;13.408;2023-02-28T02:53:34;1.60;24.70
1413;DHT22;701;52.526;13.408;2023-02-28T02:56:03;1.60;24.80
1413;DHT22;701;52.526;13.408;2023-02-28T02:58:35;1.50;24.90
1413;DHT22;701;52.526;13.408;2023-02-28T03:01:08;1.50;25.10
1413;DHT22;701;52.526;13.408;2023-02-28T03:03:36;1.50;25.60
1413;DHT22;701;52.526;13.408;2023-02-28T03:06:02;1.50;26.20
1413;DHT22;701;52.526;13.408;2023-02-28T03:08:31;1.40;26.10
1413;DHT22;701;52.526;13.408;2023-02-28T03:11:02;1.40;26.40
1413;DHT22;701;52.526;13.408;2023-02-28T03:14:09;1.40;26.40
1413;DHT22;701;52.526;13.408;2023-02-28T03:25:14;1.30;26.40
1413;DHT22;701;52.526;13.408;2023-02-28T03:27:39;1.30;26.40
1413;DHT22;701;52.526;13.408;2023-02-28T03:30:45;1.30;26.60
1413;DHT22;701;52.526;13.408;2023-02-28T03:33:17;1.20;26.80
1413;DHT22;701;52.526;13.408;2023-02-28T03:35:56;1.20;27.20
1413;DHT22;701;52.526;13.408;2023-02-28T03:41:02;1.20;27.10
1413;DHT22;701;52.526;13.408;2023-02-28T03:43:36;1.10;27.30
1413;DHT22;701;52.526;13.408;2023-02-28T03:46:08;1.10;27.30
1413;DHT22;701;52.526;13.408;2023-02-28T03:49:42;1.10;27.40
1413;DHT22;701;52.526;13.408;2023-02-28T03:51:36;1.10;27.80
1413;DHT22;701;52.526;13.408;2023-02-28T03:54:13;1.10;27.40
1413;DHT22;701;52.526;13.408;2023-02-28T03:56:51;1.00;27.50
1413;DHT22;701;52.526;13.408;2023-02-28T04:01:53;1.00;27.70
1413;DHT22;701;52.526;13.408;2023-02-28T04:04:20;1.00;27.90
1413;DHT22;701;52.526;13.408;2023-02-28T04:06:52;0.90;27.80
1413;DHT22;701;52.526;13.408;2023-02-28T04:09:25;0.90;27.90
1413;DHT22;701;52.526;13.408;2023-02-28T04:11:52;0.90;28.20
1413;DHT22;701;52.526;13.408;2023-02-28T04:14:18;0.90;28.10
1413;DHT22;701;52.526;13.408;2023-02-28T04:16:45;0.90;28.10
1413;DHT22;701;52.526;13.408;2023-02-28T04:19:12;0.80;28.10
1413;DHT22;701;52.526;13.408;2023-02-28T04:21:43;0.80;28.20
1413;DHT22;701;52.526;13.408;2023-02-28T04:24:12;0.80;28.10
1413;DHT22;701;52.526;13.408;2023-02-28T04:26:51;0.80;28.20
1413;DHT22;701;52.526;13.408;2023-02-28T04:31:47;0.80;28.20
1413;DHT22;701;52.526;13.408;2023-02-28T04:34:13;0.70;28.10
1413;DHT22;701;52.526;13.408;2023-02-28T04:36:39;0.70;28.20
1413;DHT22;701;52.526;13.408;2023-02-28T04:39:05;0.70;28.30
1413;DHT22;701;52.526;13.408;2023-02-28T04:41:31;0.70;28.30
1413;DHT22;701;52.526;13.408;2023-02-28T04:43:56;0.70;28.40
1413;DHT22;701;52.526;13.408;2023-02-28T04:46:22;0.70;28.40
1413;DHT22;701;52.526;13.408;2023-02-28T04:48:48;0.60;28.30
1413;DHT22;701;52.526;13.408;2023-02-28T04:51:16;0.60;28.30
1413;DHT22;701;52.526;13.408;2023-02-28T04:53:42;0.60;28.30
1413;DHT22;701;52.526;13.408;2023-02-28T04:56:12;0.50;28.50
1413;DHT22;701;52.526;13.408;2023-02-28T04:58:38;0.50;28.60
1413;DHT22;701;52.526;13.408;2023-02-28T05:01:28;0.50;28.70
1413;DHT22;701;52.526;13.408;2023-02-28T05:03:54;0.50;28.70
1413;DHT22;701;52.526;13.408;2023-02-28T05:06:21;0.50;28.80
1413;DHT22;701;52.526;13.408;2023-02-28T05:08:47;0.50;28.90
1413;DHT22;701;52.526;13.408;2023-02-28T05:11:20;0.50;28.90
1413;DHT22;701;52.526;13.408;2023-02-28T05:13:48;0.40;29.20
1413;DHT22;701;52.526;13.408;2023-02-28T05:16:14;0.40;29.20
1413;DHT22;701;52.526;13.408;2023-02-28T05:18:40;0.40;29.20
1413;DHT22;701;52.526;13.408;2023-02-28T05:21:06;0.40;29.20
1413;DHT22;701;52.526;13.408;2023-02-28T05:23:32;0.40;29.20
1413;DHT22;701;52.526;13.408;2023-02-28T05:25:58;0.40;29.20
1413;DHT22;701;52.526;13.408;2023-02-28T05:28:24;0.40;29.40
1413;DHT22;701;52.526;13.408;2023-02-28T05:30:50;0.40;29.50
1413;DHT22;701;52.526;13.408;2023-02-28T05:33:16;0.40;29.70
1413;DHT22;701;52.526;13.408;2023-02-28T05:35:42;0.40;29.70
1413;DHT22;701;52.526;13.408;2023-02-28T05:38:10;0.40;29.70
1413;DHT22;701;52.526;13.408;2023-02-28T05:40:38;0.40;29.70
1413;DHT22;701;52.526;13.408;2023-02-28T05:43:05;0.40;29.80
1413;DHT22;701;52.526;13.408;2023-02-28T05:45:31;0.30;29.80
1413;DHT22;701;52.526;13.408;2023-02-28T05:47:57;0.30;29.90
1413;DHT22;701;52.526;13.408;2023-02-28T05:50:22;0.30;29.90
1413;DHT22;701;52.526;13.408;2023-02-28T05:52:51;0.30;30.00
1413;DHT22;701;52.526;13.408;2023-02-28T05:55:17;0.30;30.00
1413;DHT22;701;52.526;13.408;2023-02-28T05:57:44;0.30;30.00
1413;DHT22;701;52.526;13.408;2023-02-28T06:00:10;0.30;30.00
1413;DHT22;701;52.526;13.408;2023-02-28T06:02:39;0.30;30.10
1413;DHT22;701;52.526;13.408;2023-02-28T06:05:15;0.30;30.10
1413;DHT22;701;52.526;13.408;2023-02-28T06:07:42;0.30;30.00
1413;DHT22;701;52.526;13.408;2023-02-28T06:10:09;0.30;30.00
1413;DHT22;701;52.526;13.408;2023-02-28T06:12:35;0.30;30.00
1413;DHT22;701;52.526;13.408;2023-02-28T06:15:01;0.30;30.00
1413;DHT22;701;52.526;13.408;2023-02-28T06:17:27;0.30;30.00
1413;DHT22;701;52.526;13.408;2023-02-28T06:19:52;0.40;29.90
1413;DHT22;701;52.526;13.408;2023-02-28T06:22:18;0.40;29.90
1413;DHT22;701;52.526;13.408;2023-02-28T06:24:44;0.40;29.80
1413;DHT22;701;52.526;13.408;2023-02-28T06:27:10;0.40;29.60
1413;DHT22;701;52.526;13.408;2023-02-28T06:29:36;0.40;29.50
1413;DHT22;701;52.526;13.408;2023-02-28T06:32:05;0.40;29.40
1413;DHT22;701;52.526;13.408;2023-02-28T06:34:32;0.50;29.40
1413;DHT22;701;52.526;13.408;2023-02-28T06:36:59;0.50;29.30
1413;DHT22;701;52.526;13.408;2023-02-28T06:39:28;0.50;29.30
1413;DHT22;701;52.526;13.408;2023-02-28T06:41:54;0.60;29.30
1413;DHT22;701;52.526;13.408;2023-02-28T06:44:20;0.60;29.30
1413;DHT22;701;52.526;13.408;2023-02-28T06:46:46;0.60;29.10
1413;DHT22;701;52.526;13.408;2023-02-28T06:49:12;0.70;29.00
1413;DHT22;701;52.526;13.408;2023-02-28T06:51:43;0.70;28.70
1413;DHT22;701;52.526;13.408;2023-02-28T06:54:12;0.80;28.50
1413;DHT22;701;52.526;13.408;2023-02-28T06:56:38;0.80;28.30
1413;DHT22;701;52.526;13.408;2023-02-28T06:59:04;0.80;28.20
1413;DHT22;701;52.526;13.408;2023-02-28T07:01:30;0.90;28.10
1413;DHT22;701;52.526;13.408;2023-02-28T07:03:58;0.90;27.80
1413;DHT22;701;52.526;13.408;2023-02-28T07:06:25;1.00;27.40
1413;DHT22;701;52.526;13.408;2023-02-28T07:08:53;1.00;27.20
1413;DHT22;701;52.526;13.408;2023-02-28T07:11:26;1.00;26.80
1413;DHT22;701;52.526;13.408;2023-02-28T07:13:53;1.10;26.90
1413;DHT22;701;52.526;13.408;2023-02-28T07:16:19;1.20;26.30
1413;DHT22;701;52.526;13.408;2023-02-28T07:18:45;1.20;26.30
1413;DHT22;701;52.526;13.408;2023-02-28T07:21:11;1.20;26.30
1413;DHT22;701;52.526;13.408;2023-02-28T07:23:38;1.30;25.30
1413;DHT22;701;52.526;13.408;2023-02-28T07:26:07;1.30;24.80
1413;DHT22;701;52.526;13.408;2023-02-28T07:28:36;1.40;24.40
1413;DHT22;701;52.526;13.408;2023-02-28T07:31:07;1.50;24.10
1413;DHT22;701;52.526;13.408;2023-02-28T07:33:35;1.50;23.40
1413;DHT22;701;52.526;13.408;2023-02-28T07:36:09;1.60;22.90
1413;DHT22;701;52.526;13.408;2023-02-28T07:38:39;1.70;21.80
1413;DHT22;701;52.526;13.408;2023-02-28T07:41:05;1.70;21.10
1413;DHT22;701;52.526;13.408;2023-02-28T07:43:32;1.80;20.50
1413;DHT22;701;52.526;13.408;2023-02-28T07:46:10;1.90;19.80
1413;DHT22;701;52.526;13.408;2023-02-28T07:48:36;1.90;19.20
1413;DHT22;701;52.526;13.408;2023-02-28T07:51:02;2.00;18.50
1413;DHT22;701;52.526;13.408;2023-02-28T07:53:29;2.10;17.90
1413;DHT22;701;52.526;13.408;2023-02-28T07:55:56;2.20;17.60
1413;DHT22;701;52.526;13.408;2023-02-28T07:58:22;2.20;17.30
1413;DHT22;701;52.526;13.408;2023-02-28T08:00:48;2.30;17.10
1413;DHT22;701;52.526;13.408;2023-02-28T08:03:14;2.40;16.80
1413;DHT22;701;52.526;13.408;2023-02-28T08:05:40;2.50;16.60
1413;DHT22;701;52.526;13.408;2023-02-28T08:08:07;2.50;16.50
1413;DHT22;701;52.526;13.408;2023-02-28T08:10:33;2.60;16.20
1413;DHT22;701;52.526;13.408;2023-02-28T08:12:59;2.70;15.60
1413;DHT22;701;52.526;13.408;2023-02-28T08:15:25;2.70;15.30
1413;DHT22;701;52.526;13.408;2023-02-28T08:17:51;2.80;15.00
1413;DHT22;701;52.526;13.408;2023-02-28T08:20:17;2.90;14.80
1413;DHT22;701;52.526;13.408;2023-02-28T08:22:42;3.00;14.60
1413;DHT22;701;52.526;13.408;2023-02-28T08:25:08;3.00;14.60
1413;DHT22;701;52.526;13.408;2023-02-28T08:27:35;3.10;15.10
1413;DHT22;701;52.526;13.408;2023-02-28T08:30:01;3.20;13.90
1413;DHT22;701;52.526;13.408;2023-02-28T08:32:27;3.30;14.00
1413;DHT22;701;52.526;13.408;2023-02-28T08:34:53;3.30;13.40
1413;DHT22;701;52.526;13.408;2023-02-28T08:37:18;3.40;11.20
1413;DHT22;701;52.526;13.408;2023-02-28T08:39:44;3.50;11.50
1413;DHT22;701;52.526;13.408;2023-02-28T08:42:10;3.60;11.40
1413;DHT22;701;52.526;13.408;2023-02-28T08:44:36;3.60;10.20
1413;DHT22;701;52.526;13.408;2023-02-28T08:47:02;3.70;9.20
1413;DHT22;701;52.526;13.408;2023-02-28T08:49:27;3.80;9.50
1413;DHT22;701;52.526;13.408;2023-02-28T08:51:54;3.80;9.00
1413;DHT22;701;52.526;13.408;2023-02-28T08:54:21;3.90;7.60
1413;DHT22;701;52.526;13.408;2023-02-28T08:56:48;3.90;7.30
1413;DHT22;701;52.526;13.408;2023-02-28T08:59:14;4.00;7.60
1413;DHT22;701;52.526;13.408;2023-02-28T09:01:40;4.00;6.60
1413;DHT22;701;52.526;13.408;2023-02-28T09:04:07;4.10;6.60
1413;DHT22;701;52.526;13.408;2023-02-28T09:06:34;4.20;6.60
1413;DHT22;701;52.526;13.408;2023-02-28T09:09:00;4.20;7.10
1413;DHT22;701;52.526;13.408;2023-02-28T09:11:27;4.30;6.60
1413;DHT22;701;52.526;13.408;2023-02-28T09:13:54;4.30;6.20
1413;DHT22;701;52.526;13.408;2023-02-28T09:16:21;4.40;6.90
1413;DHT22;701;52.526;13.408;2023-02-28T09:18:47;4.50;6.80
1413;DHT22;701;52.526;13.408;2023-02-28T09:21:18;4.50;6.20
1413;DHT22;701;52.526;13.408;2023-02-28T09:23:45;4.50;6.80
1413;DHT22;701;52.526;13.408;2023-02-28T09:26:20;4.60;6.20
1413;DHT22;701;52.526;13.408;2023-02-28T09:28:47;4.70;6.30
1413;DHT22;701;52.526;13.408;2023-02-28T09:31:16;4.70;6.90
1413;DHT22;701;52.526;13.408;2023-02-28T09:33:42;4.80;6.00
1413;DHT22;701;52.526;13.408;2023-02-28T09:36:09;4.80;6.00
1413;DHT22;701;52.526;13.408;2023-02-28T09:38:34;4.90;5.70
1413;DHT22;701;52.526;13.408;2023-02-28T09:41:03;4.90;4.80
1413;DHT22;701;52.526;13.408;2023-02-28T09:43:38;5.00;4.50
1413;DHT22;701;52.526;13.408;2023-02-28T09:46:32;5.00;4.50
1413;DHT22;701;52.526;13.408;2023-02-28T09:50:03;5.10;4.60
1413;DHT22;701;52.526;13.408;2023-02-28T09:52:19;5.30;4.50
1413;DHT22;701;52.526;13.408;2023-02-28T09:54:45;5.90;3.80
1413;DHT22;701;52.526;13.408;2023-02-28T09:57:39;6.60;4.20
1413;DHT22;701;52.526;13.408;2023-02-28T10:05:16;10.00;1.00
1413;DHT22;701;52.526;13.408;2023-02-28T10:08:07;10.90;1.00
1413;DHT22;701;52.526;13.408;2023-02-28T10:10:42;11.60;1.00
1413;DHT22;701;52.526;13.408;2023-02-28T10:13:26;12.30;1.00
1413;DHT22;701;52.526;13.408;2023-02-28T10:15:56;12.70;1.00
1413;DHT22;701;52.526;13.408;2023-02-28T10:18:27;13.00;1.00
1413;DHT22;701;52.526;13.408;2023-02-28T10:20:56;13.10;1.00
1413;DHT22;701;52.526;13.408;2023-02-28T10:23:27;13.00;1.00
1413;DHT22;701;52.526;13.408;2023-02-28T10:26:08;13.00;1.00
1413;DHT22;701;52.526;13.408;2023-02-28T10:28:35;12.90;1.00
1413;DHT22;701;52.526;13.408;2023-02-28T10:31:02;12.90;1.00
1413;DHT22;701;52.526;13.408;2023-02-28T10:35:57;12.90;1.00
1413;DHT22;701;52.526;13.408;2023-02-28T10:38:32;12.80;1.00
1413;DHT22;701;52.526;13.408;2023-02-28T10:41:05;12.60;1.00
1413;DHT22;701;52.526;13.408;2023-02-28T10:43:31;12.40;1.00
1413;DHT22;701;52.526;13.408;2023-02-28T10:51:05;11.70;1.00
1413;DHT22;701;52.526;13.408;2023-02-28T11:03:58;10.80;1.00
1413;DHT22;701;52.526;13.408;2023-02-28T11:06:29;10.70;1.00
1413;DHT22;701;52.526;13.408;2023-02-28T11:09:04;10.60;1.00
1413;DHT22;701;52.526;13.408;2023-02-28T11:11:43;10.50;1.00
1413;DHT22;701;52.526;13.408;2023-02-28T11:14:20;10.40;1.00
1413;DHT22;701;52.526;13.408;2023-02-28T11:16:48;10.40;1.00
1413;DHT22;701;52.526;13.408;2023-02-28T11:19:28;10.30;1.00
1413;DHT22;701;52.526;13.408;2023-02-28T11:22:00;10.20;1.00
1413;DHT22;701;52.526;13.408;2023-02-28T11:24:32;10.20;1.00
1413;DHT22;701;52.526;13.408;2023-02-28T11:27:00;10.20;1.00
1413;DHT22;701;52.526;13.408;2023-02-28T11:29:29;10.10;1.00
1413;DHT22;701;52.526;13.408;2023-02-28T11:34:36;10.00;1.00
1413;DHT22;701;52.526;13.408;2023-02-28T11:37:04;10.00;1.00
1413;DHT22;701;52.526;13.408;2023-02-28T11:39:34;9.90;1.00
1413;DHT22;701;52.526;13.408;2023-02-28T11:50:54;9.50;1.00
1413;DHT22;701;52.526;13.408;2023-02-28T11:54:00;9.20;1.00
1413;DHT22;701;52.526;13.408;2023-02-28T11:56:37;9.00;1.00
1413;DHT22;701;52.526;13.408;2023-02-28T11:59:45;9.00;1.00
1413;DHT22;701;52.526;13.408;2023-02-28T12:02:27;8.90;1.00
1413;DHT22;701;52.526;13.408;2023-02-28T12:10:24;8.60;1.00
1413;DHT22;701;52.526;13.408;2023-02-28T12:22:17;7.80;1.00
1413;DHT22;701;52.526;13.408;2023-02-28T12:27:33;7.50;1.00
1413;DHT22;701;52.526;13.408;2023-02-28T12:32:50;7.30;1.00
1413;DHT22;701;52.526;13.408;2023-02-28T12:35:26;7.20;1.00
1413;DHT22;701;52.526;13.408;2023-02-28T12:37:57;7.00;1.00
1413;DHT22;701;52.526;13.408;2023-02-28T12:40:50;6.90;1.00
1413;DHT22;701;52.526;13.408;2023-02-28T12:43:16;6.90;1.00
1413;DHT22;701;52.526;13.408;2023-02-28T12:45:54;6.80;1.00
1413;DHT22;701;52.526;13.408;2023-02-28T12:48:43;6.90;1.00
1413;DHT22;701;52.526;13.408;2023-02-28T12:51:13;6.90;1.00
1413;DHT22;701;52.526;13.408;2023-02-28T13:07:24;7.00;1.00
1413;DHT22;701;52.526;13.408;2023-02-28T13:09:54;7.00;1.00
1413;DHT22;701;52.526;13.408;2023-02-28T13:12:20;6.90;1.00
1413;DHT22;701;52.526;13.408;2023-02-28T13:14:49;6.90;1.00
1413;DHT22;701;52.526;13.408;2023-02-28T13:17:19;6.90;1.00
1413;DHT22;701;52.526;13.408;2023-02-28T13:19:59;7.00;1.00
1413;DHT22;701;52.526;13.408;2023-02-28T13:24:55;7.10;1.00
1413;DHT22;701;52.526;13.408;2023-02-28T13:27:25;7.20;1.00
1413;DHT22;701;52.526;13.408;2023-02-28T13:29:56;7.20;1.00
1413;DHT22;701;52.526;13.408;2023-02-28T13:39:57;7.30;1.00
1413;DHT22;701;52.526;13.408;2023-02-28T13:50:32;7.60;1.00
1413;DHT22;701;52.526;13.408;2023-02-28T13:53:39;7.70;1.00
1413;DHT22;701;52.526;13.408;2023-02-28T13:56:41;7.70;1.00
1413;DHT22;701;52.526;13.408;2023-02-28T14:02:11;7.80;1.00
1413;DHT22;701;52.526;13.408;2023-02-28T14:05:06;7.80;1.00
1413;DHT22;701;52.526;13.408;2023-02-28T14:07:47;7.70;1.00
1413;DHT22;701;52.526;13.408;2023-02-28T14:10:29;7.70;1.00
1413;DHT22;701;52.526;13.408;2023-02-28T14:13:36;7.70;1.00
1413;DHT22;701;52.526;13.408;2023-02-28T14:16:00;7.70;1.00
1413;DHT22;701;52.526;13.408;2023-02-28T14:21:02;7.70;1.00
1413;DHT22;701;52.526;13.408;2023-02-28T14:24:56;7.60;1.00
1413;DHT22;701;52.526;13.408;2023-02-28T14:35:29;7.60;1.00
1413;DHT22;701;52.526;13.408;2023-02-28T14:38:05;7.50;1.00
1413;DHT22;701;52.526;13.408;2023-02-28T14:40:34;7.50;1.00
1413;DHT22;701;52.526;13.408;2023-02-28T14:43:03;7.40;1.00
1413;DHT22;701;52.526;13.408;2023-02-28T14:45:31;7.40;1.00
1413;DHT22;701;52.526;13.408;2023-02-28T14:47:58;7.40;1.00
1413;DHT22;701;52.526;13.408;2023-02-28T14:50:34;7.40;1.00
1413;DHT22;701;52.526;13.408;2023-02-28T14:53:01;7.40;1.00
1413;DHT22;701;52.526;13.408;2023-02-28T14:55:35;7.30;1.00
1413;DHT22;701;52.526;13.408;2023-02-28T14:58:03;7.30;1.00
1413;DHT22;701;52.526;13.408;2023-02-28T15:00:31;7.30;1.00
1413;DHT22;701;52.526;13.408;2023-02-28T15:02:58;7.20;1.00
1413;DHT22;701;52.526;13.408;2023-02-28T15:05:28;7.20;1.00
1413;DHT22;701;52.526;13.408;2023-02-28T15:08:12;7.10;1.00
1413;DHT22;701;52.526;13.408;2023-02-28T15:10:43;7.00;1.00
1413;DHT22;701;52.526;13.408;2023-02-28T15:13:14;7.00;1.00
1413;DHT22;701;52.526;13.408;2023-02-28T15:18:32;6.80;1.00
1413;DHT22;701;52.526;13.408;2023-02-28T15:21:05;6.70;1.00
1413;DHT22;701;52.526;13.408;2023-02-28T15:23:32;6.70;1.00
1413;DHT22;701;52.526;13.408;2023-02-28T15:26:00;6.60;1.00
1413;DHT22;701;52.526;13.408;2023-02-28T15:28:26;6.60;1.00
1413;DHT22;701;52.526;13.408;2023-02-28T15:30:58;6.50;1.00
1413;DHT22;701;52.526;13.408;2023-02-28T15:33:32;6.50;1.00
1413;DHT22;701;52.526;13.408;2023-02-28T15:36:15;6.40;1.00
1413;DHT22;701;52.526;13.408;2023-02-28T15:38:43;6.30;1.70
1413;DHT22;701;52.526;13.408;2023-02-28T15:41:27;6.30;1.40
1413;DHT22;701;52.526;13.408;2023-02-28T15:44:13;6.20;1.50
1413;DHT22;701;52.526;13.408;2023-02-28T15:46:43;6.10;1.70
1413;DHT22;701;52.526;13.408;2023-02-28T15:49:19;6.10;1.90
1413;DHT22;701;52.526;13.408;2023-02-28T15:51:46;6.00;2.00
1413;DHT22;701;52.526;13.408;2023-02-28T15:54:24;5.90;1.90
1413;DHT22;701;52.526;13.408;2023-02-28T15:56:51;5.90;2.00
1413;DHT22;701;52.526;13.408;2023-02-28T15:59:20;5.80;2.10
1413;DHT22;701;52.526;13.408;2023-02-28T16:01:46;5.80;2.20
1413;DHT22;701;52.526;13.408;2023-02-28T16:04:16;5.70;2.70
1413;DHT22;701;52.526;13.408;2023-02-28T16:09:23;5.60;3.30
1413;DHT22;701;52.526;13.408;2023-02-28T16:11:52;5.60;3.60
1413;DHT22;701;52.526;13.408;2023-02-28T16:14:26;5.60;3.60
1413;DHT22;701;52.526;13.408;2023-02-28T16:16:55;5.50;3.90
1413;DHT22;701;52.526;13.408;2023-02-28T16:19:21;5.50;4.10
1413;DHT22;701;52.526;13.408;2023-02-28T16:21:47;5.40;4.30
1413;DHT22;701;52.526;13.408;2023-02-28T16:24:13;5.40;4.30
1413;DHT22;701;52.526;13.408;2023-02-28T16:26:41;5.30;4.80
1413;DHT22;701;52.526;13.408;2023-02-28T16:29:10;5.30;4.40
1413;DHT22;701;52.526;13.408;2023-02-28T16:31:39;5.20;4.30
1413;DHT22;701;52.526;13.408;2023-02-28T16:34:05;5.20;4.40
1413;DHT22;701;52.526;13.408;2023-02-28T16:36:31;5.10;4.40
1413;DHT22;701;52.526;13.408;2023-02-28T16:38:57;5.10;4.50
1413;DHT22;701;52.526;13.408;2023-02-28T16:41:27;5.10;4.60
1413;DHT22;701;52.526;13.408;2023-02-28T16:43:56;5.00;4.50
1413;DHT22;701;52.526;13.408;2023-02-28T16:46:30;5.00;4.60
1413;DHT22;701;52.526;13.408;2023-02-28T16:48:57;4.90;4.60
1413;DHT22;701;52.526;13.408;2023-02-28T16:51:23;4.90;4.80
1413;DHT22;701;52.526;13.408;2023-02-28T16:53:48;4.80;4.80
1413;DHT22;701;52.526;13.408;2023-02-28T16:56:24;4.80;5.00
1413;DHT22;701;52.526;13.408;2023-02-28T16:58:51;4.70;5.00
1413;DHT22;701;52.526;13.408;2023-02-28T17:01:17;4.70;5.10
1413;DHT22;701;52.526;13.408;2023-02-28T17:03:50;4.70;5.00
1413;DHT22;701;52.526;13.408;2023-02-28T17:06:25;4.60;5.30
1413;DHT22;701;52.526;13.408;2023-02-28T17:08:53;4.60;5.40
1413;DHT22;701;52.526;13.408;2023-02-28T17:11:19;4.60;5.50
1413;DHT22;701;52.526;13.408;2023-02-28T17:13:46;4.50;5.50
1413;DHT22;701;52.526;13.408;2023-02-28T17:16:38;4.50;5.70
1413;DHT22;701;52.526;13.408;2023-02-28T17:19:15;4.50;5.90
1413;DHT22;701;52.526;13.408;2023-02-28T17:21:42;4.50;6.00
1413;DHT22;701;52.526;13.408;2023-02-28T17:24:08;4.50;6.10
1413;DHT22;701;52.526;13.408;2023-02-28T17:26:34;4.40;6.10
1413;DHT22;701;52.526;13.408;2023-02-28T17:29:00;4.40;6.30
1413;DHT22;701;52.526;13.408;2023-02-28T17:31:27;4.40;6.30
1413;DHT22;701;52.526;13.408;2023-02-28T17:33:53;4.40;6.40
1413;DHT22;701;52.526;13.408;2023-02-28T17:36:25;4.30;6.60
1413;DHT22;701;52.526;13.408;2023-02-28T17:38:52;4.30;6.60
1413;DHT22;701;52.526;13.408;2023-02-28T17:41:19;4.30;6.60
1413;DHT22;701;52.526;13.408;2023-02-28T17:43:44;4.30;6.60
1413;DHT22;701;52.526;13.408;2023-02-28T17:46:19;4.20;6.60
1413;DHT22;701;52.526;13.408;2023-02-28T17:48:49;4.20;6.60
1413;DHT22;701;52.526;13.408;2023-02-28T17:51:16;4.20;6.60
1413;DHT22;701;52.526;13.408;2023-02-28T17:53:43;4.10;6.50
1413;DHT22;701;52.526;13.408;2023-02-28T17:56:12;4.10;6.90
1413;DHT22;701;52.526;13.408;2023-02-28T17:58:38;4.10;6.90
1413;DHT22;701;52.526;13.408;2023-02-28T18:01:04;4.00;6.90
1413;DHT22;701;52.526;13.408;2023-02-28T18:03:30;4.00;7.20
1413;DHT22;701;52.526;13.408;2023-02-28T18:05:58;3.90;7.20
1413;DHT22;701;52.526;13.408;2023-02-28T18:08:23;3.90;7.40
1413;DHT22;701;52.526;13.408;2023-02-28T18:10:49;3.90;7.50
1413;DHT22;701;52.526;13.408;2023-02-28T18:13:15;3.90;7.60
1413;DHT22;701;52.526;13.408;2023-02-28T18:15:41;3.80;7.70
1413;DHT22;701;52.526;13.408;2023-02-28T18:18:06;3.80;7.80
1413;DHT22;701;52.526;13.408;2023-02-28T18:20:33;3.70;7.90
1413;DHT22;701;52.526;13.408;2023-02-28T18:22:59;3.70;8.00
1413;DHT22;701;52.526;13.408;2023-02-28T18:25:26;3.70;8.30
1413;DHT22;701;52.526;13.408;2023-02-28T18:27:52;3.60;8.20
1413;DHT22;701;52.526;13.408;2023-02-28T18:30:35;3.60;8.40
1413;DHT22;701;52.526;13.408;2023-02-28T18:33:02;3.60;8.70
1413;DHT22;701;52.526;13.408;2023-02-28T18:35:29;3.50;8.60
1413;DHT22;701;52.526;13.408;2023-02-28T18:40:35;3.50;9.10
1413;DHT22;701;52.526;13.408;2023-02-28T18:43:02;3.40;9.00
1413;DHT22;701;52.526;13.408;2023-02-28T18:45:28;3.40;9.20
1413;DHT22;701;52.526;13.408;2023-02-28T18:47:54;3.40;9.30
1413;DHT22;701;52.526;13.408;2023-02-28T18:50:20;3.40;9.40
1413;DHT22;701;52.526;13.408;2023-02-28T18:52:46;3.40;9.60
1413;DHT22;701;52.526;13.408;2023-02-28T18:55:12;3.40;9.60
1413;DHT22;701;52.526;13.408;2023-02-28T18:57:46;3.40;9.80
1413;DHT22;701;52.526;13.408;2023-02-28T19:00:14;3.40;9.80
1413;DHT22;701;52.526;13.408;2023-02-28T19:02:40;3.40;9.80
1413;DHT22;701;52.526;13.408;2023-02-28T19:05:07;3.40;9.80
1413;DHT22;701;52.526;13.408;2023-02-28T19:07:34;3.40;10.10
1413;DHT22;701;52.526;13.408;2023-02-28T19:10:00;3.40;10.60
1413;DHT22;701;52.526;13.408;2023-02-28T19:12:26;3.40;9.90
1413;DHT22;701;52.526;13.408;2023-02-28T19:14:52;3.30;9.90